createdAt,value
2023-02-20T00:01:05.271Z,2.00
2023-02-20T00:03:32.799Z,2.57
2023-02-20T00:06:00.421Z,1.90
2023-02-20T00:08:27.870Z,2.47
2023-02-20T00:10:55.275Z,1.73
2023-02-20T00:13:22.785Z,1.77
2023-02-20T00:15:51.523Z,1.60
2023-02-20T00:18:18.942Z,4.77
2023-02-20T00:20:46.382Z,4.60
2023-02-20T00:23:13.899Z,1.83
2023-02-20T00:25:41.335Z,1.70
2023-02-20T00:28:08.836Z,2.03
2023-02-20T00:30:36.449Z,2.10
2023-02-20T00:33:05.268Z,2.80
2023-02-20T00:35:32.721Z,1.50
2023-02-20T00:38:00.288Z,2.00
2023-02-20T00:40:28.036Z,1.80
2023-02-20T00:42:55.494Z,1.87
2023-02-20T00:45:23.206Z,2.10
2023-02-20T00:47:50.578Z,3.47
2023-02-20T00:50:19.803Z,1.93
2023-02-20T00:52:47.362Z,1.57
2023-02-20T00:55:14.824Z,1.90
2023-02-20T00:57:42.245Z,1.80
2023-02-20T01:00:12.249Z,1.80
2023-02-20T01:02:39.737Z,6.10
2023-02-20T01:05:07.606Z,2.63
2023-02-20T01:07:36.413Z,2.37
2023-02-20T01:10:03.846Z,5.77
2023-02-20T01:12:31.352Z,2.53
2023-02-20T01:14:58.770Z,5.13
2023-02-20T01:17:26.172Z,2.37
2023-02-20T01:19:55.381Z,2.43
2023-02-20T01:22:22.873Z,2.60
2023-02-20T01:24:51.787Z,3.07
2023-02-20T01:27:19.312Z,3.70
2023-02-20T01:29:46.676Z,3.13
2023-02-20T01:32:14.548Z,3.47
2023-02-20T01:34:42.015Z,4.00
2023-02-20T01:37:13.738Z,5.93
2023-02-20T01:39:41.171Z,8.70
2023-02-20T01:42:13.938Z,3.17
2023-02-20T01:44:42.326Z,6.37
2023-02-20T01:47:10.327Z,5.80
2023-02-20T01:49:39.050Z,5.60
2023-02-20T01:52:09.392Z,6.93
2023-02-20T01:54:37.397Z,6.93
2023-02-20T01:57:06.251Z,9.53
2023-02-20T01:59:37.213Z,4.93
2023-02-20T02:02:05.316Z,6.07
2023-02-20T02:04:33.574Z,5.70
2023-02-20T02:07:01.362Z,5.80
2023-02-20T02:09:36.523Z,9.37
2023-02-20T02:12:04.064Z,7.83
2023-02-20T02:14:31.709Z,6.63
2023-02-20T02:17:08.162Z,7.87
2023-02-20T02:19:45.455Z,7.60
2023-02-20T02:22:29.500Z,7.33
2023-02-20T02:25:15.385Z,7.47
2023-02-20T02:28:03.007Z,7.87
2023-02-20T02:30:55.833Z,7.40
2023-02-20T02:33:35.716Z,10.30
2023-02-20T02:36:23.410Z,7.67
2023-02-20T02:38:54.681Z,7.77
2023-02-20T02:41:26.369Z,11.27
2023-02-20T02:43:58.251Z,7.23
2023-02-20T02:46:28.551Z,10.50
2023-02-20T02:48:59.888Z,9.07
2023-02-20T02:51:30.791Z,7.30
2023-02-20T02:54:08.190Z,10.00
2023-02-20T02:56:36.671Z,8.43
2023-02-20T02:59:04.299Z,8.13
2023-02-20T03:01:32.502Z,6.97
2023-02-20T03:04:01.357Z,14.03
2023-02-20T03:06:35.450Z,10.03
2023-02-20T03:09:04.582Z,7.53
2023-02-20T03:11:33.484Z,8.53
2023-02-20T03:14:20.477Z,8.00
2023-02-20T03:16:52.131Z,7.57
2023-02-20T03:19:22.868Z,12.63
2023-02-20T03:21:52.156Z,6.00
2023-02-20T03:24:21.375Z,6.97
2023-02-20T03:26:49.935Z,7.80
2023-02-20T03:29:20.753Z,14.10
2023-02-20T03:31:50.089Z,9.17
2023-02-20T03:34:37.066Z,6.37
2023-02-20T03:37:25.667Z,6.20
2023-02-20T03:40:12.122Z,6.67
2023-02-20T03:42:59.408Z,6.00
2023-02-20T03:45:27.720Z,6.33
2023-02-20T03:47:58.669Z,5.60
2023-02-20T03:50:43.663Z,5.97
2023-02-20T03:53:12.700Z,7.10
2023-02-20T03:55:40.292Z,7.37
2023-02-20T03:58:10.473Z,11.17
2023-02-20T04:00:41.504Z,9.87
2023-02-20T04:03:11.226Z,8.70
2023-02-20T04:05:41.586Z,11.70
2023-02-20T04:08:10.973Z,6.33
2023-02-20T04:10:44.299Z,6.13
2023-02-20T04:13:12.759Z,5.43
2023-02-20T04:15:40.904Z,6.30
2023-02-20T04:18:10.789Z,6.77
2023-02-20T04:20:38.603Z,6.10
2023-02-20T04:23:08.878Z,6.00
2023-02-20T04:25:40.878Z,6.83
2023-02-20T04:28:09.862Z,5.13
2023-02-20T04:30:37.452Z,6.03
2023-02-20T04:33:05.022Z,5.60
2023-02-20T04:35:32.528Z,7.03
2023-02-20T04:37:59.985Z,9.50
2023-02-20T04:40:27.409Z,9.17
2023-02-20T04:42:54.881Z,8.17
2023-02-20T04:45:23.723Z,7.90
2023-02-20T04:47:51.180Z,7.00
2023-02-20T04:50:21.190Z,7.83
2023-02-20T04:52:48.657Z,8.73
2023-02-20T04:55:16.348Z,6.27
2023-02-20T04:57:43.997Z,8.47
2023-02-20T05:00:12.720Z,7.33
2023-02-20T05:02:41.912Z,7.60
2023-02-20T05:05:16.604Z,5.80
2023-02-20T05:07:44.012Z,6.47
2023-02-20T05:10:13.872Z,7.57
2023-02-20T05:12:41.400Z,6.90
2023-02-20T05:15:09.225Z,8.00
2023-02-20T05:17:36.720Z,7.00
2023-02-20T05:20:05.931Z,6.90
2023-02-20T05:22:32.414Z,8.90
2023-02-20T05:25:00.189Z,9.07
2023-02-20T05:27:28.165Z,6.87
2023-02-20T05:29:56.947Z,7.20
2023-02-20T05:32:25.233Z,7.67
2023-02-20T05:34:53.122Z,8.80
2023-02-20T05:37:22.572Z,8.47
2023-02-20T05:39:50.249Z,11.00
2023-02-20T05:42:18.306Z,12.50
2023-02-20T05:44:45.833Z,11.07
2023-02-20T05:47:18.127Z,9.27
2023-02-20T05:49:46.984Z,11.23
2023-02-20T05:52:14.398Z,8.23
2023-02-20T05:54:43.181Z,8.57
2023-02-20T05:57:12.261Z,7.63
2023-02-20T05:59:39.686Z,7.70
2023-02-20T06:02:07.157Z,7.27
2023-02-20T06:04:34.690Z,10.57
2023-02-20T06:07:02.198Z,5.90
2023-02-20T06:09:29.589Z,7.20
2023-02-20T06:11:58.363Z,9.13
2023-02-20T06:14:28.313Z,6.83
2023-02-20T06:16:57.715Z,6.90
2023-02-20T06:19:25.764Z,6.30
2023-02-20T06:21:54.263Z,8.10
2023-02-20T06:24:22.185Z,7.47
2023-02-20T06:26:49.652Z,9.60
2023-02-20T06:29:19.040Z,6.50
2023-02-20T06:31:46.836Z,8.13
2023-02-20T06:34:15.047Z,8.30
2023-02-20T06:36:43.203Z,7.30
2023-02-20T06:39:11.220Z,5.60
2023-02-20T06:41:38.696Z,8.10
2023-02-20T06:44:06.720Z,6.90
2023-02-20T06:46:35.641Z,6.37
2023-02-20T06:49:03.290Z,6.67
2023-02-20T06:51:32.203Z,6.60
2023-02-20T06:54:00.104Z,6.73
2023-02-20T06:56:28.691Z,6.70
2023-02-20T06:58:56.379Z,6.20
2023-02-20T07:01:27.022Z,6.70
2023-02-20T07:03:56.297Z,8.40
2023-02-20T07:06:24.240Z,7.47
2023-02-20T07:08:51.713Z,5.67
2023-02-20T07:11:19.621Z,8.77
2023-02-20T07:13:47.141Z,7.20
2023-02-20T07:16:15.344Z,7.37
2023-02-20T07:18:43.007Z,5.60
2023-02-20T07:21:11.927Z,8.00
2023-02-20T07:23:39.355Z,7.60
2023-02-20T07:26:06.876Z,9.43
2023-02-20T07:28:35.269Z,5.70
2023-02-20T07:31:03.090Z,8.13
2023-02-20T07:33:30.896Z,7.27
2023-02-20T07:35:58.436Z,8.20
2023-02-20T07:38:27.208Z,6.07
2023-02-20T07:40:54.654Z,6.37
2023-02-20T07:43:22.150Z,5.50
2023-02-20T07:45:49.844Z,8.60
2023-02-20T07:48:17.443Z,7.87
2023-02-20T07:50:45.000Z,6.00
2023-02-20T07:53:15.187Z,5.70
2023-02-20T07:55:44.087Z,6.90
2023-02-20T07:58:11.867Z,6.30
2023-02-20T08:00:39.347Z,6.60
2023-02-20T08:03:06.716Z,5.57
2023-02-20T08:05:48.192Z,6.40
2023-02-20T08:08:16.302Z,7.20
2023-02-20T08:10:45.205Z,7.37
2023-02-20T08:13:12.615Z,4.93
2023-02-20T08:15:41.823Z,5.43
2023-02-20T08:18:22.071Z,8.40
2023-02-20T08:20:52.120Z,6.17
2023-02-20T08:23:20.593Z,5.37
2023-02-20T08:25:49.382Z,8.70
2023-02-20T08:28:16.892Z,10.70
2023-02-20T08:30:44.434Z,7.40
2023-02-20T08:33:11.917Z,4.73
2023-02-20T08:35:39.392Z,5.27
2023-02-20T08:38:08.412Z,8.10
2023-02-20T08:40:36.131Z,7.30
2023-02-20T08:43:04.908Z,5.70
2023-02-20T08:45:32.432Z,7.00
2023-02-20T08:48:02.106Z,7.87
2023-02-20T08:50:29.533Z,7.83
2023-02-20T08:52:57.121Z,8.97
2023-02-20T08:55:24.538Z,6.77
2023-02-20T08:57:52.967Z,8.40
2023-02-20T09:00:22.145Z,8.87
2023-02-20T09:02:49.670Z,10.53
2023-02-20T09:05:17.908Z,9.67
2023-02-20T09:07:46.088Z,7.57
2023-02-20T09:10:13.813Z,11.90
2023-02-20T09:12:42.211Z,9.30
2023-02-20T09:15:10.262Z,14.30
2023-02-20T09:17:39.149Z,6.63
2023-02-20T09:20:09.881Z,9.73
2023-02-20T09:22:37.688Z,6.80
2023-02-20T09:25:05.610Z,8.20
2023-02-20T09:27:33.063Z,6.40
2023-02-20T09:30:00.497Z,8.77
2023-02-20T09:32:28.155Z,10.07
2023-02-20T09:34:57.768Z,9.73
2023-02-20T09:37:25.266Z,8.33
2023-02-20T09:39:52.828Z,7.90
2023-02-20T09:42:24.425Z,8.00
2023-02-20T09:44:57.017Z,7.97
2023-02-20T09:47:30.208Z,9.73
2023-02-20T09:50:00.849Z,5.97
2023-02-20T09:52:29.505Z,10.23
2023-02-20T09:55:02.263Z,9.23
2023-02-20T09:57:30.828Z,12.80
2023-02-20T10:00:05.213Z,9.90
2023-02-20T10:02:35.543Z,11.13
2023-02-20T10:05:05.598Z,9.50
2023-02-20T10:07:34.318Z,8.97
2023-02-20T10:10:03.568Z,9.37
2023-02-20T10:12:33.577Z,8.17
2023-02-20T10:15:13.889Z,12.30
2023-02-20T10:17:48.071Z,11.17
2023-02-20T10:20:20.963Z,9.07
2023-02-20T10:22:50.839Z,7.90
2023-02-20T10:25:21.065Z,8.93
2023-02-20T10:27:53.744Z,9.53
2023-02-20T10:30:24.189Z,8.03
2023-02-20T10:32:54.128Z,9.60
2023-02-20T10:35:24.924Z,8.13
2023-02-20T10:37:54.455Z,9.40
2023-02-20T10:40:25.387Z,6.30
2023-02-20T10:42:55.362Z,8.70
2023-02-20T10:45:27.531Z,9.17
2023-02-20T10:47:58.792Z,6.60
2023-02-20T10:50:30.442Z,10.47
2023-02-20T10:53:00.462Z,9.57
2023-02-20T10:55:29.469Z,8.67
2023-02-20T10:57:58.914Z,8.43
2023-02-20T11:00:28.752Z,10.00
2023-02-20T11:02:58.929Z,10.20
2023-02-20T11:05:34.215Z,9.10
2023-02-20T11:08:01.793Z,10.10
2023-02-20T11:10:30.660Z,10.73
2023-02-20T11:13:00.355Z,11.90
2023-02-20T11:15:29.881Z,12.37
2023-02-20T11:17:59.361Z,9.97
2023-02-20T11:20:42.293Z,10.07
2023-02-20T11:23:11.505Z,11.13
2023-02-20T11:25:41.902Z,10.93
2023-02-20T11:28:11.004Z,11.47
2023-02-20T11:30:39.740Z,8.37
2023-02-20T11:33:12.188Z,9.40
2023-02-20T11:35:39.930Z,10.83
2023-02-20T11:38:20.205Z,11.17
2023-02-20T11:40:48.464Z,11.20
2023-02-20T11:43:20.076Z,12.33
2023-02-20T11:45:47.592Z,14.03
2023-02-20T11:48:15.632Z,10.97
2023-02-20T11:50:43.495Z,11.90
2023-02-20T11:53:19.337Z,10.50
2023-02-20T11:55:58.725Z,13.57
2023-02-20T11:58:28.263Z,11.93
2023-02-20T12:00:56.394Z,12.97
2023-02-20T12:03:24.735Z,10.83
2023-02-20T12:05:52.912Z,7.27
2023-02-20T12:08:38.016Z,9.43
2023-02-20T12:11:08.791Z,9.33
2023-02-20T12:13:38.392Z,12.23
2023-02-20T12:16:13.611Z,7.83
2023-02-20T12:18:50.924Z,8.97
2023-02-20T12:21:21.349Z,9.23
2023-02-20T12:23:54.921Z,11.17
2023-02-20T12:26:29.943Z,8.97
2023-02-20T12:29:02.115Z,7.80
2023-02-20T12:31:36.339Z,6.70
2023-02-20T12:34:18.629Z,8.27
2023-02-20T12:36:50.329Z,10.67
2023-02-20T12:39:23.937Z,9.67
2023-02-20T12:41:57.363Z,12.00
2023-02-20T12:44:30.332Z,8.10
2023-02-20T12:47:02.625Z,9.90
2023-02-20T12:49:40.411Z,9.70
2023-02-20T12:52:13.380Z,10.60
2023-02-20T12:54:43.893Z,10.90
2023-02-20T12:57:17.086Z,11.03
2023-02-20T12:59:50.335Z,11.30
2023-02-20T13:02:32.589Z,11.30
2023-02-20T13:05:08.951Z,9.97
2023-02-20T13:07:38.920Z,14.00
2023-02-20T13:10:09.209Z,14.93
2023-02-20T13:12:38.073Z,12.10
2023-02-20T13:15:17.315Z,17.67
2023-02-20T13:17:47.605Z,10.27
2023-02-20T13:20:19.991Z,12.90
2023-02-20T13:22:59.439Z,14.73
2023-02-20T13:25:39.550Z,10.83
2023-02-20T13:28:22.531Z,14.47
2023-02-20T13:31:06.998Z,10.63
2023-02-20T13:33:36.323Z,13.67
2023-02-20T13:36:04.540Z,12.33
2023-02-20T13:38:32.495Z,10.43
2023-02-20T13:41:07.324Z,14.20
2023-02-20T13:43:36.150Z,17.33
2023-02-20T13:46:12.584Z,13.20
2023-02-20T13:48:42.091Z,12.07
2023-02-20T13:51:28.008Z,14.90
2023-02-20T13:53:58.757Z,18.47
2023-02-20T13:56:27.832Z,14.37
2023-02-20T13:58:58.268Z,11.17
2023-02-20T14:01:25.791Z,12.10
2023-02-20T14:04:00.947Z,14.20
2023-02-20T14:06:29.516Z,14.00
2023-02-20T14:09:09.686Z,15.20
2023-02-20T14:11:38.448Z,15.87
2023-02-20T14:14:09.376Z,13.17
2023-02-20T14:16:38.105Z,13.13
2023-02-20T14:19:07.380Z,14.50
2023-02-20T14:21:36.142Z,13.70
2023-02-20T14:24:12.744Z,16.97
2023-02-20T14:26:40.188Z,14.67
2023-02-20T14:29:20.901Z,13.47
2023-02-20T14:31:51.228Z,13.60
2023-02-20T14:34:22.220Z,12.63
2023-02-20T14:36:56.512Z,13.50
2023-02-20T14:39:38.778Z,14.07
2023-02-20T14:42:07.132Z,17.77
2023-02-20T14:44:35.903Z,15.63
2023-02-20T14:47:07.643Z,16.07
2023-02-20T14:49:35.021Z,14.17
2023-02-20T14:52:06.423Z,15.90
2023-02-20T14:54:33.867Z,17.77
2023-02-20T14:57:04.708Z,14.50
2023-02-20T14:59:34.251Z,14.27
2023-02-20T15:02:04.767Z,13.83
2023-02-20T15:04:32.244Z,14.23
2023-02-20T15:07:03.879Z,17.17
2023-02-20T15:09:38.827Z,18.70
2023-02-20T15:12:09.467Z,15.53
2023-02-20T15:14:42.062Z,13.80
2023-02-20T15:17:22.876Z,12.00
2023-02-20T15:19:50.632Z,19.10
2023-02-20T15:22:25.284Z,13.80
2023-02-20T15:24:52.878Z,13.40
2023-02-20T15:27:23.186Z,15.37
2023-02-20T15:30:05.548Z,16.77
2023-02-20T15:32:34.561Z,13.37
2023-02-20T15:35:02.020Z,12.00
2023-02-20T15:37:38.194Z,15.87
2023-02-20T15:40:17.628Z,13.20
2023-02-20T15:42:45.162Z,12.83
2023-02-20T15:45:13.724Z,12.17
2023-02-20T15:47:42.532Z,13.80
2023-02-20T15:50:10.095Z,14.83
2023-02-20T15:52:37.730Z,13.30
2023-02-20T15:55:05.748Z,14.83
2023-02-20T15:57:33.653Z,14.23
2023-02-20T16:00:01.096Z,14.80
2023-02-20T16:02:28.614Z,12.33
2023-02-20T16:04:57.469Z,11.67
2023-02-20T16:07:25.150Z,13.63
2023-02-20T16:09:52.586Z,12.37
2023-02-20T16:12:21.056Z,14.57
2023-02-20T16:14:53.680Z,12.50
2023-02-20T16:17:24.339Z,13.37
2023-02-20T16:19:51.727Z,11.80
2023-02-20T16:22:20.526Z,10.50
2023-02-20T16:24:48.338Z,17.70
2023-02-20T16:27:23.859Z,15.30
2023-02-20T16:29:52.632Z,12.13
2023-02-20T16:32:22.019Z,15.20
2023-02-20T16:34:49.618Z,13.50
2023-02-20T16:37:17.322Z,11.03
2023-02-20T16:39:46.199Z,13.37
2023-02-20T16:42:21.872Z,13.60
2023-02-20T16:44:50.496Z,13.17
2023-02-20T16:47:18.793Z,11.70
2023-02-20T16:49:46.310Z,17.83
2023-02-20T16:52:17.773Z,11.83
2023-02-20T16:54:47.552Z,11.90
2023-02-20T16:57:15.049Z,15.20
2023-02-20T16:59:42.494Z,16.10
2023-02-20T17:02:15.426Z,13.17
2023-02-20T17:04:42.990Z,10.50
2023-02-20T17:07:11.007Z,12.10
2023-02-20T17:09:43.865Z,13.10
2023-02-20T17:12:15.953Z,11.10
2023-02-20T17:14:43.422Z,11.03
2023-02-20T17:17:11.018Z,13.10
2023-02-20T17:19:38.811Z,11.50
2023-02-20T17:22:06.803Z,15.20
2023-02-20T17:24:34.266Z,10.63
2023-02-20T17:27:02.013Z,15.70
2023-02-20T17:29:30.848Z,12.30
2023-02-20T17:31:58.338Z,12.70
2023-02-20T17:34:25.752Z,14.00
2023-02-20T17:36:53.196Z,11.83
2023-02-20T17:39:21.703Z,16.20
2023-02-20T17:41:49.155Z,12.57
2023-02-20T17:44:17.206Z,10.77
2023-02-20T17:46:46.094Z,11.83
2023-02-20T17:49:14.091Z,11.27
2023-02-20T17:51:41.530Z,13.53
2023-02-20T17:54:09.053Z,11.97
2023-02-20T17:56:40.510Z,15.13
2023-02-20T17:59:08.093Z,11.60
2023-02-20T18:01:35.486Z,11.60
2023-02-20T18:04:05.927Z,15.20
2023-02-20T18:06:33.840Z,14.50
2023-02-20T18:09:01.589Z,14.03
2023-02-20T18:11:29.451Z,15.40
2023-02-20T18:13:57.631Z,12.43
2023-02-20T18:16:26.025Z,15.63
2023-02-20T18:18:53.562Z,13.23
2023-02-20T18:21:24.141Z,11.70
2023-02-20T18:23:51.933Z,12.77
2023-02-20T18:26:19.515Z,13.57
2023-02-20T18:28:46.984Z,14.83
2023-02-20T18:31:14.791Z,13.83
2023-02-20T18:33:42.394Z,10.93
2023-02-20T18:36:10.137Z,10.97
2023-02-20T18:38:38.905Z,12.07
2023-02-20T18:41:07.096Z,14.27
2023-02-20T18:43:34.470Z,13.23
2023-02-20T18:46:02.034Z,12.40
2023-02-20T18:48:29.493Z,11.40
2023-02-20T18:50:56.892Z,12.23
2023-02-20T18:53:24.268Z,11.77
2023-02-20T18:55:53.014Z,12.20
2023-02-20T18:58:20.470Z,11.30
2023-02-20T19:00:48.012Z,9.63
2023-02-20T19:03:15.458Z,15.70
2023-02-20T19:05:42.943Z,13.63
2023-02-20T19:08:10.345Z,13.60
2023-02-20T19:10:37.806Z,16.33
2023-02-20T19:13:06.632Z,13.00
2023-02-20T19:15:34.028Z,15.57
2023-02-20T19:18:01.456Z,12.47
2023-02-20T19:20:30.569Z,14.57
2023-02-20T19:22:58.433Z,11.63
2023-02-20T19:25:26.027Z,15.20
2023-02-20T19:27:53.449Z,12.17
2023-02-20T19:30:22.287Z,11.70
2023-02-20T19:32:49.836Z,11.67
2023-02-20T19:35:17.736Z,13.40
2023-02-20T19:37:45.303Z,12.30
2023-02-20T19:40:12.799Z,12.70
2023-02-20T19:42:41.579Z,13.87
2023-02-20T19:45:09.373Z,14.13
2023-02-20T19:47:38.203Z,15.00
2023-02-20T19:50:06.307Z,13.43
2023-02-20T19:52:34.316Z,13.20
2023-02-20T19:55:01.746Z,14.13
2023-02-20T19:57:29.200Z,14.60
2023-02-20T19:59:56.630Z,18.50
2023-02-20T20:02:25.571Z,14.73
2023-02-20T20:04:54.481Z,17.80
2023-02-20T20:07:21.946Z,17.23
2023-02-20T20:09:49.402Z,14.43
2023-02-20T20:12:34.693Z,16.83
2023-02-20T20:15:03.363Z,14.83
2023-02-20T20:17:31.773Z,17.93
2023-02-20T20:20:01.162Z,16.60
2023-02-20T20:22:29.170Z,16.60
2023-02-20T20:24:56.622Z,17.87
2023-02-20T20:27:24.299Z,17.67
2023-02-20T20:29:52.279Z,19.07
2023-02-20T20:32:21.259Z,16.27
2023-02-20T20:34:52.118Z,19.63
2023-02-20T20:37:21.356Z,18.60
2023-02-20T20:39:50.121Z,19.90
2023-02-20T20:42:17.625Z,19.83
2023-02-20T20:44:45.114Z,17.40
2023-02-20T20:47:12.471Z,24.43
2023-02-20T20:49:39.859Z,23.27
2023-02-20T20:52:07.310Z,21.70
2023-02-20T20:54:36.217Z,22.53
2023-02-20T20:57:03.656Z,22.10
2023-02-20T20:59:31.163Z,22.63
2023-02-20T21:01:58.561Z,23.57
2023-02-20T21:04:26.640Z,22.60
2023-02-20T21:06:54.106Z,24.60
2023-02-20T21:09:21.520Z,29.80
2023-02-20T21:11:50.466Z,28.50
2023-02-20T21:14:18.378Z,26.73
2023-02-20T21:16:46.082Z,23.07
2023-02-20T21:19:13.537Z,27.13
2023-02-20T21:21:41.030Z,25.60
2023-02-20T21:24:08.717Z,27.10
2023-02-20T21:26:37.905Z,21.50
2023-02-20T21:29:06.970Z,25.30
2023-02-20T21:31:34.461Z,24.27
2023-02-20T21:34:02.356Z,25.90
2023-02-20T21:36:29.818Z,23.40
2023-02-20T21:38:57.318Z,22.70
2023-02-20T21:41:42.765Z,28.20
2023-02-20T21:44:29.303Z,23.40
2023-02-20T21:46:57.688Z,25.17
2023-02-20T21:49:25.432Z,23.97
2023-02-20T21:51:52.853Z,23.03
2023-02-20T21:54:21.268Z,24.87
2023-02-20T21:56:48.682Z,23.30
2023-02-20T21:59:16.405Z,22.33
2023-02-20T22:01:43.043Z,23.30
2023-02-20T22:04:10.551Z,23.07
2023-02-20T22:06:36.915Z,22.40
2023-02-20T22:09:22.525Z,23.00
2023-02-20T22:12:08.031Z,22.20
2023-02-20T22:14:54.625Z,23.17
2023-02-20T22:17:39.406Z,20.93
2023-02-20T22:20:24.899Z,27.27
2023-02-20T22:23:09.954Z,22.10
2023-02-20T22:25:54.836Z,19.80
2023-02-20T22:28:39.672Z,23.27
2023-02-20T22:31:26.222Z,21.80
2023-02-20T22:34:11.254Z,23.27
2023-02-20T22:36:56.134Z,19.10
2023-02-20T22:39:41.135Z,21.97
2023-02-20T22:42:34.376Z,23.80
2023-02-20T22:45:20.190Z,21.00
2023-02-20T22:48:06.432Z,21.70
2023-02-20T22:50:51.455Z,21.83
2023-02-20T22:53:36.321Z,21.40
2023-02-20T22:56:21.216Z,23.10
2023-02-20T22:59:06.017Z,24.20
2023-02-20T23:01:50.917Z,21.17
2023-02-20T23:04:37.239Z,22.40
2023-02-20T23:07:22.254Z,24.10
2023-02-20T23:10:07.213Z,24.47
2023-02-20T23:12:51.980Z,22.13
2023-02-20T23:15:36.827Z,24.23
2023-02-20T23:18:21.615Z,24.63
2023-02-20T23:21:07.823Z,23.00
2023-02-20T23:23:52.613Z,22.77
2023-02-20T23:26:37.739Z,27.43
2023-02-20T23:29:22.677Z,24.77
2023-02-20T23:32:08.055Z,23.70
2023-02-20T23:34:53.301Z,26.43
2023-02-20T23:37:39.378Z,27.73
2023-02-20T23:40:36.110Z,23.87
2023-02-20T23:43:21.656Z,23.27
2023-02-20T23:46:06.737Z,24.60
2023-02-20T23:48:51.776Z,23.00
2023-02-20T23:51:36.643Z,25.30
2023-02-20T23:54:23.443Z,27.40
2023-02-20T23:57:08.246Z,24.20
2023-02-20T23:59:53.677Z,25.97
